Time;durP1;ratioP1;P1;durP2;ratioP2;P2;SDS_P1;SDS_P2;PMS_P1;PMS_P2;Temp;Humidity;BMP_temperature;BMP_pressure;BME280_temperature;BME280_humidity;BME280_pressure;Samples;Min_cycle;Max_cycle;Signal;HPM_P1;HPM_P2
2023/06/30 00:00:11;;;;;;;5.30;2.00;;;;;;;16.92;62.68;100553.91;5073301;28;20083;-45
2023/06/30 00:02:40;;;;;;;13.80;2.70;;;;;;;16.90;63.11;100549.91;5077569;28;20047;-45
2023/06/30 00:05:07;;;;;;;17.60;4.22;;;;;;;16.90;62.98;100545.13;5070427;28;20513;-43
2023/06/30 00:07:34;;;;;;;18.33;3.33;;;;;;;16.86;63.01;100533.16;5071592;28;20045;-45
2023/06/30 00:10:03;;;;;;;16.55;3.53;;;;;;;16.85;63.13;100541.91;5075425;28;20152;-44
2023/06/30 00:12:30;;;;;;;14.55;2.92;;;;;;;16.81;63.18;100525.09;5071333;28;20045;-44
2023/06/30 00:14:56;;;;;;;9.15;3.00;;;;;;;16.79;63.15;100518.31;5074150;28;20067;-43
2023/06/30 00:17:23;;;;;;;10.32;2.97;;;;;;;16.78;63.35;100513.94;5075736;28;20052;-44
2023/06/30 00:19:50;;;;;;;12.13;3.20;;;;;;;16.77;63.18;100517.91;5071697;28;20506;-44
2023/06/30 00:22:19;;;;;;;15.98;3.88;;;;;;;16.77;63.49;100512.31;5080902;28;20036;-45
2023/06/30 00:24:48;;;;;;;13.80;2.40;;;;;;;16.75;63.39;100511.91;5087806;28;20048;-45
2023/06/30 00:27:15;;;;;;;17.70;2.97;;;;;;;16.74;63.56;100511.09;5073517;28;20040;-44
2023/06/30 00:29:42;;;;;;;14.35;3.80;;;;;;;16.70;63.70;100515.09;5074637;28;20046;-44
2023/06/30 00:32:08;;;;;;;9.13;2.75;;;;;;;16.69;63.76;100519.06;5062054;28;20052;-43
2023/06/30 00:34:35;;;;;;;17.30;4.15;;;;;;;16.67;63.73;100507.47;5071047;28;20052;-43
2023/06/30 00:37:02;;;;;;;10.80;2.58;;;;;;;16.67;63.73;100511.06;5063885;28;20044;-45
2023/06/30 00:39:29;;;;;;;14.55;3.03;;;;;;;16.66;63.95;100494.69;5072841;28;20098;-43
2023/06/30 00:41:55;;;;;;;10.80;3.88;;;;;;;16.67;63.95;100501.88;5063138;28;20773;-44
2023/06/30 00:44:22;;;;;;;8.48;3.10;;;;;;;16.69;64.09;100499.50;5086262;28;20056;-44
2023/06/30 00:46:49;;;;;;;13.50;3.92;;;;;;;16.66;64.20;100497.47;5081360;28;20147;-45
2023/06/30 00:49:15;;;;;;;10.98;3.90;;;;;;;16.65;64.42;100498.69;5073033;28;20094;-45
2023/06/30 00:51:42;;;;;;;10.95;2.60;;;;;;;16.62;64.52;100493.88;5072752;28;20076;-43
2023/06/30 00:54:09;;;;;;;13.27;2.70;;;;;;;16.59;64.71;100489.88;5069613;28;20064;-43
2023/06/30 00:56:36;;;;;;;16.73;3.92;;;;;;;16.57;64.88;100502.63;5086166;28;20090;-43
2023/06/30 00:59:02;;;;;;;17.15;2.63;;;;;;;16.55;65.11;100493.84;5089831;28;20403;-45
2023/06/30 01:01:32;;;;;;;12.75;2.80;;;;;;;16.51;65.29;100488.19;5074251;28;20056;-44
2023/06/30 01:04:15;;;;;;;13.45;2.92;;;;;;;16.50;65.56;100485.78;5073811;28;20446;-46
2023/06/30 01:06:54;;;;;;;8.63;2.90;;;;;;;16.45;65.71;100482.19;5083766;28;20436;-43
2023/06/30 01:09:26;;;;;;;12.55;2.70;;;;;;;16.44;65.75;100474.22;5074451;28;20380;-44
2023/06/30 01:11:53;;;;;;;13.38;3.33;;;;;;;16.43;66.03;100487.38;5091450;28;20048;-44
2023/06/30 01:14:22;;;;;;;13.48;3.08;;;;;;;16.42;66.18;100474.56;5085059;28;20046;-44
2023/06/30 01:16:50;;;;;;;8.60;2.65;;;;;;;16.38;66.39;100470.97;5076512;28;20056;-45
2023/06/30 01:19:26;;;;;;;8.60;2.38;;;;;;;16.36;66.61;100470.53;5074489;28;20048;-43
2023/06/30 01:21:55;;;;;;;12.55;2.80;;;;;;;16.30;66.68;100465.72;5088241;28;20033;-44
2023/06/30 01:24:26;;;;;;;10.65;2.28;;;;;;;16.27;67.00;100461.72;5079671;28;20048;-44
2023/06/30 01:26:53;;;;;;;19.17;5.07;;;;;;;16.23;67.07;100452.50;5073949;28;20049;-44
2023/06/30 01:29:20;;;;;;;12.73;3.13;;;;;;;16.17;67.46;100454.09;5073924;28;20068;-44
2023/06/30 01:31:47;;;;;;;18.30;2.70;;;;;;;16.16;67.62;100458.06;5086937;28;20513;-43
2023/06/30 01:34:14;;;;;;;12.00;3.05;;;;;;;16.10;67.80;100451.25;5073208;28;20080;-43
2023/06/30 01:36:41;;;;;;;11.63;2.60;;;;;;;16.04;68.24;100452.81;5074052;28;20086;-43
2023/06/30 01:39:07;;;;;;;13.85;3.22;;;;;;;16.01;68.51;100442.41;5073426;28;20063;-44
2023/06/30 01:41:35;;;;;;;19.08;3.15;;;;;;;16.03;68.76;100437.25;5080381;28;20102;-43
2023/06/30 01:44:02;;;;;;;12.40;3.10;;;;;;;16.01;69.08;100431.25;5080509;28;20135;-48
2023/06/30 01:46:29;;;;;;;13.40;3.60;;;;;;;15.99;69.11;100425.22;5073676;28;20079;-44
2023/06/30 01:48:56;;;;;;;10.88;2.60;;;;;;;15.93;69.45;100429.59;5087168;28;20580;-43
2023/06/30 01:51:23;;;;;;;12.32;3.45;;;;;;;15.88;69.62;100424.38;5081373;28;20135;-43
2023/06/30 01:53:50;;;;;;;15.25;4.20;;;;;;;15.81;70.01;100427.09;5088384;28;20508;-43
2023/06/30 01:56:16;;;;;;;12.80;3.25;;;;;;;15.72;70.46;100413.50;5085092;28;20102;-43
2023/06/30 01:58:43;;;;;;;12.90;3.90;;;;;;;15.68;70.68;100417.44;5079802;28;20379;-43
2023/06/30 02:01:10;;;;;;;11.90;2.95;;;;;;;15.66;70.96;100408.66;5073143;28;20083;-43
2023/06/30 02:03:37;;;;;;;8.90;3.10;;;;;;;15.62;71.15;100413.44;5071942;28;20486;-44
2023/06/30 02:06:03;;;;;;;15.77;3.33;;;;;;;15.55;71.54;100408.59;5075538;28;20773;-48
2023/06/30 02:08:30;;;;;;;21.10;4.85;;;;;;;15.48;71.87;100397.38;5077500;28;20491;-43
2023/06/30 02:10:57;;;;;;;8.95;2.45;;;;;;;15.46;72.03;100401.75;5073260;28;20057;-45
2023/06/30 02:13:23;;;;;;;22.08;3.25;;;;;;;15.43;72.42;100394.13;5088827;28;20494;-43
2023/06/30 02:15:50;;;;;;;15.15;3.53;;;;;;;15.44;72.53;100395.69;5079952;28;20615;-44
2023/06/30 02:18:17;;;;;;;15.35;4.22;;;;;;;15.40;72.70;100376.16;5073884;28;20071;-44
2023/06/30 02:20:44;;;;;;;9.75;2.92;;;;;;;15.40;72.98;100378.94;5063206;28;20063;-44
2023/06/30 02:23:10;;;;;;;11.52;3.00;;;;;;;15.35;73.26;100373.72;5077014;28;20051;-43
2023/06/30 02:25:37;;;;;;;12.55;3.10;;;;;;;15.35;73.69;100372.94;5073018;28;20048;-45
2023/06/30 02:28:04;;;;;;;9.80;2.40;;;;;;;15.33;73.92;100355.78;5072858;28;20080;-44
2023/06/30 02:30:30;;;;;;;11.15;2.60;;;;;;;15.31;74.05;100358.13;5082615;28;20477;-46
2023/06/30 02:32:58;;;;;;;14.93;3.40;;;;;;;15.31;74.25;100349.75;5081849;28;20036;-44
2023/06/30 02:35:24;;;;;;;14.55;3.58;;;;;;;15.29;74.33;100338.19;5072700;28;20068;-44
2023/06/30 02:37:51;;;;;;;13.32;2.75;;;;;;;15.27;74.79;100343.38;5072499;28;20093;-43
2023/06/30 02:40:18;;;;;;;8.43;2.63;;;;;;;15.24;75.12;100337.38;5072850;28;20118;-46
2023/06/30 02:42:44;;;;;;;12.48;2.85;;;;;;;15.23;75.07;100324.63;5085851;28;20037;-45
2023/06/30 02:45:11;;;;;;;17.33;3.13;;;;;;;15.19;75.27;100321.03;5073052;28;20084;-43
2023/06/30 02:47:40;;;;;;;10.43;3.45;;;;;;;15.18;75.62;100329.75;5089715;28;20485;-43
2023/06/30 02:50:08;;;;;;;11.98;4.57;;;;;;;15.15;75.72;100328.53;5085821;28;20060;-44
2023/06/30 02:52:35;;;;;;;12.45;3.00;;;;;;;15.13;75.97;100324.53;5074291;28;20597;-43
2023/06/30 02:55:02;;;;;;;27.35;3.65;;;;;;;15.11;76.16;100322.16;5078648;28;20048;-43
2023/06/30 02:57:28;;;;;;;11.48;2.75;;;;;;;15.14;76.35;100324.13;5072356;28;20136;-44
2023/06/30 02:59:56;;;;;;;24.98;3.88;;;;;;;15.14;76.64;100315.00;5083934;28;20048;-44
2023/06/30 03:02:23;;;;;;;12.80;2.63;;;;;;;15.12;76.71;100315.38;5104984;22;20056;-44
2023/06/30 03:04:50;;;;;;;14.68;3.00;;;;;;;15.11;77.06;100305.41;5072126;28;20127;-43
2023/06/30 03:07:17;;;;;;;14.68;3.60;;;;;;;15.12;77.22;100308.97;5071403;28;20490;-43
2023/06/30 03:09:44;;;;;;;10.07;3.38;;;;;;;15.09;77.51;100307.78;5072088;28;20051;-45
2023/06/30 03:12:11;;;;;;;9.20;2.55;;;;;;;15.11;77.54;100311.00;5058832;28;20072;-44
2023/06/30 03:14:39;;;;;;;9.20;2.85;;;;;;;15.13;77.92;100307.81;5071442;28;20048;-44
2023/06/30 03:17:06;;;;;;;14.25;3.15;;;;;;;15.13;78.04;100302.22;5071433;28;20076;-43
2023/06/30 03:19:33;;;;;;;10.13;3.45;;;;;;;15.11;78.32;100305.41;5071596;28;20044;-44
2023/06/30 03:21:59;;;;;;;12.05;2.50;;;;;;;15.13;78.29;100300.25;5071797;28;20032;-43
2023/06/30 03:24:26;;;;;;;12.63;3.92;;;;;;;15.15;78.61;100299.84;5070869;28;20859;-43
2023/06/30 03:26:53;;;;;;;16.80;3.33;;;;;;;15.17;78.79;100295.47;5072124;28;20052;-43
2023/06/30 03:29:20;;;;;;;9.65;2.80;;;;;;;15.21;78.82;100293.53;5071206;28;20482;-44
2023/06/30 03:31:46;;;;;;;9.32;2.22;;;;;;;15.20;78.89;100285.53;5053529;28;20058;-46
2023/06/30 03:34:13;;;;;;;8.95;2.70;;;;;;;15.20;79.13;100280.78;5071263;28;20052;-45
2023/06/30 03:36:40;;;;;;;9.07;2.55;;;;;;;15.18;79.09;100283.16;5071650;28;20053;-43
2023/06/30 03:39:07;;;;;;;7.88;2.28;;;;;;;15.18;79.29;100282.34;5071165;28;20124;-43
2023/06/30 03:41:33;;;;;;;7.30;1.88;;;;;;;15.14;79.57;100279.53;5071125;28;20501;-43
2023/06/30 03:44:00;;;;;;;9.32;2.28;;;;;;;15.14;79.59;100279.53;5071159;28;20115;-43
2023/06/30 03:46:27;;;;;;;8.35;1.83;;;;;;;15.16;79.97;100284.72;5071499;28;20055;-43
2023/06/30 03:48:54;;;;;;;9.43;1.98;;;;;;;15.16;79.79;100287.50;5052986;28;20072;-44
2023/06/30 03:51:20;;;;;;;5.47;1.60;;;;;;;15.15;79.81;100278.34;5071280;28;20068;-43
2023/06/30 03:53:47;;;;;;;5.13;1.70;;;;;;;15.15;79.81;100277.53;5070697;28;20048;-44
2023/06/30 03:56:14;;;;;;;6.03;2.13;;;;;;;15.13;80.04;100272.38;5071273;28;20176;-43
2023/06/30 03:58:41;;;;;;;6.28;1.90;;;;;;;15.13;80.29;100263.19;5070910;28;20040;-43
2023/06/30 04:01:07;;;;;;;6.22;1.58;;;;;;;15.15;80.37;100253.25;5070958;28;20079;-45
2023/06/30 04:03:34;;;;;;;5.90;1.30;;;;;;;15.13;80.44;100241.69;5070637;28;20048;-45
2023/06/30 04:06:01;;;;;;;6.28;1.88;;;;;;;15.13;80.62;100238.91;5071248;28;20048;-43
2023/06/30 04:08:29;;;;;;;4.45;1.15;;;;;;;15.13;80.80;100233.31;5071203;28;20045;-43
2023/06/30 04:10:55;;;;;;;5.30;1.70;;;;;;;15.12;80.83;100228.94;5071362;28;20757;-44
2023/06/30 04:13:22;;;;;;;4.32;1.13;;;;;;;15.14;81.07;100243.28;5070920;28;20426;-43
2023/06/30 04:15:49;;;;;;;7.65;1.55;;;;;;;15.16;81.24;100238.13;5070923;28;20129;-43
2023/06/30 04:18:16;;;;;;;4.50;1.20;;;;;;;15.14;81.04;100246.06;5071255;28;20098;-44
2023/06/30 04:20:44;;;;;;;7.18;1.33;;;;;;;15.13;81.45;100241.69;5071057;28;20131;-44
2023/06/30 04:23:10;;;;;;;4.57;1.48;;;;;;;15.13;81.35;100229.72;5070132;28;20452;-43
2023/06/30 04:25:39;;;;;;;6.22;1.25;;;;;;;15.13;81.36;100238.91;5070929;28;20575;-44
2023/06/30 04:28:05;;;;;;;4.65;1.70;;;;;;;15.12;81.47;100240.06;5074573;28;20482;-43
2023/06/30 04:30:32;;;;;;;4.57;1.38;;;;;;;15.15;81.63;100236.53;5075150;28;20040;-44
2023/06/30 04:32:59;;;;;;;4.78;2.10;;;;;;;15.18;81.66;100232.97;5074262;28;20521;-44
2023/06/30 04:35:26;;;;;;;3.55;1.48;;;;;;;15.21;81.92;100221.03;5075118;28;20052;-44
2023/06/30 04:37:52;;;;;;;7.07;1.40;;;;;;;15.22;81.76;100225.41;5074365;28;20044;-44
2023/06/30 04:40:19;;;;;;;2.35;0.60;;;;;;;15.22;81.94;100219.06;5057325;28;20405;-44
2023/06/30 04:42:46;;;;;;;4.15;0.70;;;;;;;15.20;81.75;100215.81;5074686;28;20111;-44
2023/06/30 04:45:13;;;;;;;2.35;0.77;;;;;;;15.17;81.91;100220.19;5074549;28;20147;-46
2023/06/30 04:47:41;;;;;;;5.68;1.20;;;;;;;15.16;81.91;100209.44;5056741;28;20044;-45
2023/06/30 04:50:09;;;;;;;3.92;0.90;;;;;;;15.14;81.96;100212.59;5074252;28;20048;-43
2023/06/30 04:52:35;;;;;;;5.50;0.93;;;;;;;15.15;82.17;100208.63;5074524;28;20450;-44
2023/06/30 04:55:02;;;;;;;2.55;0.52;;;;;;;15.17;82.07;100206.25;5074608;28;20036;-44
2023/06/30 04:57:29;;;;;;;0.95;0.60;;;;;;;15.15;82.14;100203.06;5074525;28;20105;-43
2023/06/30 04:59:56;;;;;;;3.45;0.70;;;;;;;15.13;82.30;100201.84;5074761;28;20440;-43
2023/06/30 05:02:23;;;;;;;2.95;0.68;;;;;;;15.11;82.40;100191.09;5074056;28;20110;-43
2023/06/30 05:04:51;;;;;;;1.00;0.68;;;;;;;15.10;82.40;100186.69;5056063;28;20048;-45
2023/06/30 05:07:18;;;;;;;1.70;0.40;;;;;;;15.11;82.50;100188.31;5056507;28;20119;-45
2023/06/30 05:09:46;;;;;;;3.58;0.80;;;;;;;15.10;82.56;100180.31;5074260;28;20052;-44
2023/06/30 05:12:14;;;;;;;1.65;0.55;;;;;;;15.06;82.68;100174.72;5039725;28;20371;-45
2023/06/30 05:14:41;;;;;;;0.55;0.50;;;;;;;15.06;82.81;100169.13;5068101;28;20040;-43
2023/06/30 05:17:08;;;;;;;4.85;0.60;;;;;;;15.05;82.88;100161.97;5074171;28;20473;-45
2023/06/30 05:19:35;;;;;;;1.75;0.60;;;;;;;15.07;82.84;100154.00;5074115;28;20052;-43
2023/06/30 05:22:02;;;;;;;5.00;2.05;;;;;;;15.08;83.00;100152.84;5073414;28;20455;-46
2023/06/30 05:24:29;;;;;;;3.70;0.70;;;;;;;15.09;83.04;100146.06;5073852;28;20036;-51
2023/06/30 05:26:56;;;;;;;1.60;0.60;;;;;;;15.14;83.12;100142.91;5074087;28;20206;-48
2023/06/30 05:29:23;;;;;;;1.85;0.82;;;;;;;15.17;82.95;100144.91;5073929;28;20037;-44
2023/06/30 05:31:49;;;;;;;1.00;0.40;;;;;;;15.19;83.15;100139.75;5073543;28;20040;-44
2023/06/30 05:34:16;;;;;;;2.20;0.60;;;;;;;15.18;83.33;100145.72;5055965;28;20044;-45
2023/06/30 05:36:46;;;;;;;1.50;0.30;;;;;;;15.19;83.21;100145.34;5074023;28;20432;-44
2023/06/30 05:39:14;;;;;;;1.40;0.50;;;;;;;15.21;83.43;100136.56;5072381;28;20496;-44
2023/06/30 05:41:41;;;;;;;0.35;0.28;;;;;;;15.22;83.62;100150.09;5073167;28;20075;-44
2023/06/30 05:44:09;;;;;;;0.80;0.30;;;;;;;15.24;83.48;100133.81;5055444;28;20036;-44
2023/06/30 05:46:39;;;;;;;3.78;0.38;;;;;;;15.27;83.35;100131.41;5056018;28;20159;-44
2023/06/30 05:49:06;;;;;;;0.13;0.10;;;;;;;15.27;83.63;100129.44;5063847;28;20987;-45
2023/06/30 05:51:33;;;;;;;2.28;0.30;;;;;;;15.27;83.71;100133.00;5073884;28;20056;-43
2023/06/30 05:54:04;;;;;;;0.38;0.20;;;;;;;15.25;84.00;100127.00;5072986;28;20071;-44
2023/06/30 05:56:31;;;;;;;0.10;0.10;;;;;;;15.29;83.89;100131.81;5073308;28;20515;-44
2023/06/30 05:58:58;;;;;;;1.42;0.30;;;;;;;15.30;83.73;100125.06;5073310;28;20389;-43
2023/06/30 06:01:25;;;;;;;0.20;0.20;;;;;;;15.31;83.79;100130.22;5072945;28;20056;-45
2023/06/30 06:03:52;;;;;;;0.20;0.08;;;;;;;15.36;83.86;100138.22;5073309;28;20142;-44
2023/06/30 06:06:22;;;;;;;0.10;0.10;;;;;;;15.38;83.83;100118.31;5073334;28;20040;-44
2023/06/30 06:08:49;;;;;;;0.25;0.20;;;;;;;15.39;83.82;100114.31;5073065;28;20033;-44
2023/06/30 06:11:16;;;;;;;0.10;0.10;;;;;;;15.38;84.02;100112.75;5073268;28;20051;-44
2023/06/30 06:13:42;;;;;;;0.20;0.13;;;;;;;15.38;84.04;100118.31;5072917;28;20044;-44
2023/06/30 06:16:09;;;;;;;0.20;0.20;;;;;;;15.36;83.90;100115.09;5072951;28;20051;-44
2023/06/30 06:18:36;;;;;;;1.38;0.13;;;;;;;15.34;84.17;100109.13;5072738;28;20133;-45
2023/06/30 06:21:04;;;;;;;0.85;0.20;;;;;;;15.30;84.23;100106.34;5072943;28;20162;-43
2023/06/30 06:23:32;;;;;;;1.17;0.30;;;;;;;15.30;84.27;100105.53;5072222;28;20131;-46
2023/06/30 06:25:59;;;;;;;3.08;0.20;;;;;;;15.29;84.24;100113.09;5073197;28;20394;-44
2023/06/30 06:28:26;;;;;;;0.32;0.20;;;;;;;15.27;84.26;100119.06;5054806;28;20044;-44
2023/06/30 06:30:53;;;;;;;1.95;0.20;;;;;;;15.27;84.46;100111.91;5072485;28;20510;-44
2023/06/30 06:33:20;;;;;;;0.03;0.03;;;;;;;15.27;84.73;100110.69;5072600;28;20563;-44
2023/06/30 06:35:50;;;;;;;1.05;0.10;;;;;;;15.27;84.62;100110.69;5072868;28;20045;-45
2023/06/30 06:38:18;;;;;;;1.85;0.32;;;;;;;15.29;85.04;100109.50;5071961;28;20033;-43
2023/06/30 06:40:46;;;;;;;1.38;0.20;;;;;;;15.31;85.02;100109.91;5051847;28;20052;-43
2023/06/30 06:43:13;;;;;;;1.00;0.10;;;;;;;15.29;85.00;100099.16;5072036;28;20076;-44
2023/06/30 06:45:43;;;;;;;0.40;0.28;;;;;;;15.27;85.20;100109.09;5072367;28;20052;-46
2023/06/30 06:48:27;;;;;;;0.80;0.28;;;;;;;15.24;85.36;100100.34;5072463;28;20044;-45
2023/06/30 06:50:56;;;;;;;1.13;0.40;;;;;;;15.24;85.57;100107.91;5054783;28;20048;-44
2023/06/30 06:53:27;;;;;;;0.20;0.10;;;;;;;15.25;85.58;100101.91;5072283;28;20063;-43
2023/06/30 06:55:54;;;;;;;0.22;0.20;;;;;;;15.27;85.51;100100.75;5072286;28;20043;-43
2023/06/30 06:58:22;;;;;;;0.35;0.30;;;;;;;15.29;85.75;100098.34;5072328;28;20087;-43
2023/06/30 07:00:50;;;;;;;2.63;0.50;;;;;;;15.32;85.65;100111.50;5054510;28;20040;-44
2023/06/30 07:03:18;;;;;;;1.35;0.20;;;;;;;15.34;85.84;100112.72;5072009;28;20139;-47
2023/06/30 07:05:46;;;;;;;0.20;0.20;;;;;;;15.31;85.90;100112.69;5071754;28;20132;-45
2023/06/30 07:08:15;;;;;;;1.20;0.28;;;;;;;15.27;85.99;100116.25;5071330;28;20512;-45
2023/06/30 07:10:44;;;;;;;0.35;0.35;;;;;;;15.27;86.09;100116.25;5071659;28;20143;-43
2023/06/30 07:13:12;;;;;;;0.38;0.30;;;;;;;15.27;86.00;100123.84;5053477;28;20760;-45
2023/06/30 07:15:39;;;;;;;1.27;0.35;;;;;;;15.24;86.17;100108.72;5071342;28;20055;-44
2023/06/30 07:18:06;;;;;;;0.45;0.20;;;;;;;15.27;86.22;100121.84;5067436;28;20063;-46
2023/06/30 07:20:33;;;;;;;0.35;0.10;;;;;;;15.30;86.33;100120.28;5071426;28;20052;-44
2023/06/30 07:23:01;;;;;;;1.38;0.10;;;;;;;15.29;86.68;100104.72;5053833;28;20406;-47
2023/06/30 07:25:28;;;;;;;0.70;0.10;;;;;;;15.33;86.60;100113.91;5071474;28;20071;-45
2023/06/30 07:27:57;;;;;;;1.15;0.22;;;;;;;15.36;86.74;100099.16;5071684;28;20564;-46
2023/06/30 07:30:25;;;;;;;0.20;0.10;;;;;;;15.44;86.89;100106.38;5071257;28;20072;-45
2023/06/30 07:32:53;;;;;;;0.30;0.10;;;;;;;15.50;86.76;100106.81;5053751;28;20110;-45
2023/06/30 07:35:22;;;;;;;0.85;0.20;;;;;;;15.53;86.80;100106.03;5071602;28;20037;-45
2023/06/30 07:37:50;;;;;;;3.08;0.10;;;;;;;15.57;86.90;100106.84;5070588;28;20445;-45
2023/06/30 07:40:19;;;;;;;0.65;0.10;;;;;;;15.61;86.96;100102.09;5070981;28;20498;-46
2023/06/30 07:42:49;;;;;;;0.40;0.22;;;;;;;15.63;87.23;100103.28;5038379;28;20379;-46
2023/06/30 07:45:17;;;;;;;0.20;0.20;;;;;;;15.68;87.31;100104.88;5071241;28;20036;-45
2023/06/30 07:47:46;;;;;;;2.17;0.30;;;;;;;15.72;87.26;100102.91;5067186;28;20135;-45
2023/06/30 07:50:15;;;;;;;0.85;0.57;;;;;;;15.79;87.39;100105.72;5053572;28;20130;-44
2023/06/30 07:52:47;;;;;;;1.48;0.20;;;;;;;15.88;87.28;100105.34;5071160;28;20135;-45
2023/06/30 07:55:16;;;;;;;0.47;0.10;;;;;;;15.95;87.12;100097.75;5070978;28;20047;-45
2023/06/30 07:57:44;;;;;;;0.10;0.10;;;;;;;16.00;87.04;100100.16;5070543;28;20410;-44
2023/06/30 08:00:15;;;;;;;0.25;0.10;;;;;;;16.04;86.98;100106.56;5071148;28;20044;-47
2023/06/30 08:02:42;;;;;;;0.20;0.20;;;;;;;16.07;86.90;100110.56;5070579;28;20064;-49
2023/06/30 08:05:10;;;;;;;2.05;0.20;;;;;;;16.08;86.99;100093.38;5070899;28;20498;-45
2023/06/30 08:07:37;;;;;;;0.10;0.10;;;;;;;16.09;86.91;100095.00;5070909;28;20445;-45
2023/06/30 08:10:14;;;;;;;1.92;0.22;;;;;;;16.12;87.12;100090.59;5071143;28;20040;-44
2023/06/30 08:12:41;;;;;;;1.40;0.10;;;;;;;16.14;87.08;100080.63;5070927;28;20072;-46
2023/06/30 08:15:08;;;;;;;0.65;0.10;;;;;;;16.21;87.12;100083.41;5070814;28;20048;-46
2023/06/30 08:17:35;;;;;;;1.17;0.57;;;;;;;16.26;86.93;100079.41;5070943;28;20161;-44
2023/06/30 08:20:21;;;;;;;0.80;0.10;;;;;;;16.38;86.89;100079.81;5070658;28;20048;-45
2023/06/30 08:22:48;;;;;;;0.25;0.10;;;;;;;16.56;86.72;100081.81;5070680;28;20139;-47
2023/06/30 08:25:15;;;;;;;1.55;0.40;;;;;;;16.67;86.27;100082.59;5061608;28;20051;-45
2023/06/30 08:27:42;;;;;;;1.10;0.20;;;;;;;16.73;86.06;100075.41;5071033;28;20044;-45
2023/06/30 08:30:10;;;;;;;0.30;0.20;;;;;;;16.81;86.12;100063.78;5070683;28;20048;-49
2023/06/30 08:32:38;;;;;;;0.20;0.20;;;;;;;16.91;85.76;100059.38;5070826;28;20053;-45
2023/06/30 08:35:05;;;;;;;0.20;0.20;;;;;;;16.94;85.48;100076.13;5070423;28;21300;-45
2023/06/30 08:37:32;;;;;;;1.40;0.20;;;;;;;16.92;85.31;100061.75;5070704;28;20044;-45
2023/06/30 08:39:59;;;;;;;0.98;0.10;;;;;;;16.89;85.18;100050.63;5070873;28;20060;-45
2023/06/30 08:42:31;;;;;;;0.52;0.20;;;;;;;16.93;85.11;100052.19;5070318;28;20070;-46
2023/06/30 08:44:57;;;;;;;0.20;0.20;;;;;;;16.90;85.01;100055.78;5070733;28;20489;-42
2023/06/30 08:47:28;;;;;;;0.93;0.85;;;;;;;16.91;84.81;100053.78;5069678;28;20398;-45
2023/06/30 08:49:56;;;;;;;0.25;0.08;;;;;;;16.92;84.87;100049.78;5070787;28;20102;-43
2023/06/30 08:52:23;;;;;;;1.00;0.03;;;;;;;16.97;84.77;100047.38;5070615;28;20047;-45
2023/06/30 08:54:49;;;;;;;0.40;0.30;;;;;;;16.99;84.78;100041.38;5070645;28;20044;-47
2023/06/30 08:57:20;;;;;;;0.43;0.20;;;;;;;16.99;84.83;100044.97;5070571;28;20052;-49
2023/06/30 08:59:47;;;;;;;0.38;0.20;;;;;;;17.00;84.90;100042.97;5070736;28;20135;-47
2023/06/30 09:02:14;;;;;;;0.82;0.30;;;;;;;16.99;84.96;100035.78;5070276;28;20053;-45
2023/06/30 09:04:42;;;;;;;0.10;0.10;;;;;;;16.96;85.01;100039.38;5070256;28;20066;-47
2023/06/30 09:07:21;;;;;;;0.20;0.13;;;;;;;16.91;85.01;100043.41;5070351;28;20044;-47
2023/06/30 09:09:49;;;;;;;0.35;0.35;;;;;;;16.87;85.08;100041.81;5069870;28;20147;-46
2023/06/30 09:12:18;;;;;;;1.70;0.30;;;;;;;16.87;85.21;100042.59;5063691;28;20502;-45
2023/06/30 09:14:46;;;;;;;0.77;0.20;;;;;;;16.92;85.20;100045.00;5072871;28;20375;-45
2023/06/30 09:17:15;;;;;;;0.50;0.20;;;;;;;16.94;85.29;100039.00;5074581;28;20047;-46
2023/06/30 09:19:42;;;;;;;0.93;0.20;;;;;;;16.91;85.28;100042.59;5073587;28;20052;-45
2023/06/30 09:22:09;;;;;;;0.95;0.10;;;;;;;16.90;85.39;100041.00;5074015;28;20040;-45
2023/06/30 09:24:55;;;;;;;2.20;0.10;;;;;;;16.89;85.67;100039.44;5073590;28;20033;-45
2023/06/30 09:27:26;;;;;;;1.85;0.20;;;;;;;16.93;85.70;100023.41;5073935;28;20494;-45
2023/06/30 09:29:54;;;;;;;0.13;0.13;;;;;;;16.97;85.84;100013.03;5073826;28;20044;-46
2023/06/30 09:32:32;;;;;;;0.40;0.10;;;;;;;17.00;85.80;100023.38;5074097;28;20076;-44
2023/06/30 09:35:09;;;;;;;0.35;0.10;;;;;;;17.08;85.93;100016.56;5060925;28;20050;-45
2023/06/30 09:37:42;;;;;;;1.02;0.10;;;;;;;17.15;85.78;100008.16;5073672;28;20146;-45
2023/06/30 09:40:15;;;;;;;0.57;0.10;;;;;;;17.26;85.92;99997.69;5073623;28;20047;-45
2023/06/30 09:42:44;;;;;;;0.15;0.10;;;;;;;17.48;85.62;99999.16;5072811;28;20072;-46
2023/06/30 09:45:13;;;;;;;;;;;;;;;17.58;85.28;99994.72;5073985;28;20139;-44
2023/06/30 09:47:41;;;;;;;0.35;0.10;;;;;;;17.58;85.24;99995.50;5061019;28;20281;-44
2023/06/30 09:50:10;;;;;;;0.55;0.10;;;;;;;17.68;85.23;99988.25;5073903;28;20044;-44
2023/06/30 09:52:37;;;;;;;0.35;0.13;;;;;;;17.83;85.37;99991.72;5073178;28;20055;-44
2023/06/30 09:55:10;;;;;;;0.10;0.10;;;;;;;17.89;85.37;99996.50;5071489;28;20402;-44
2023/06/30 09:57:39;;;;;;;1.77;0.20;;;;;;;18.01;85.35;99997.97;5073061;28;20064;-44
2023/06/30 10:00:07;;;;;;;0.30;0.15;;;;;;;18.06;85.47;99989.13;5055850;28;20072;-45
2023/06/30 10:02:44;;;;;;;0.25;0.25;;;;;;;18.09;85.77;99980.69;5060828;28;20476;-45
2023/06/30 10:05:11;;;;;;;0.10;0.10;;;;;;;18.05;85.48;99993.16;5073369;28;20135;-42
2023/06/30 10:07:41;;;;;;;0.20;0.20;;;;;;;18.03;85.66;99982.34;5073186;28;20502;-47
2023/06/30 10:10:11;;;;;;;0.10;0.10;;;;;;;18.15;86.18;99986.66;5073092;28;20048;-44
2023/06/30 10:12:41;;;;;;;0.32;0.20;;;;;;;18.29;85.59;99986.53;5072376;28;20079;-47
2023/06/30 10:15:10;;;;;;;0.10;0.10;;;;;;;18.33;85.88;99981.66;5072952;28;20040;-43
2023/06/30 10:17:43;;;;;;;0.35;0.30;;;;;;;18.37;85.61;99992.84;5055133;28;20048;-44
2023/06/30 10:20:10;;;;;;;0.40;0.40;;;;;;;18.44;85.76;99985.16;5075826;28;20040;-44
2023/06/30 10:22:38;;;;;;;0.22;0.20;;;;;;;18.51;85.49;99982.28;5072895;28;20102;-44
2023/06/30 10:25:10;;;;;;;0.55;0.25;;;;;;;18.53;85.33;99979.09;5072093;28;20052;-44
2023/06/30 10:27:38;;;;;;;0.47;0.30;;;;;;;18.44;85.43;99978.75;5072962;28;20064;-44
2023/06/30 10:30:06;;;;;;;0.20;0.20;;;;;;;18.41;85.41;99971.97;5072768;28;20040;-44
2023/06/30 10:32:33;;;;;;;1.23;0.30;;;;;;;18.39;85.67;99968.78;5072419;28;20048;-46
2023/06/30 10:35:01;;;;;;;0.45;0.20;;;;;;;18.39;85.48;99971.59;5072753;28;20048;-44
2023/06/30 10:37:28;;;;;;;0.10;0.10;;;;;;;18.32;85.59;99966.06;5072664;28;20040;-43
2023/06/30 10:39:55;;;;;;;1.90;0.20;;;;;;;18.24;85.65;99967.34;5072379;28;20048;-43
2023/06/30 10:42:28;;;;;;;0.50;0.20;;;;;;;18.24;85.65;99967.34;5071571;28;20179;-43
2023/06/30 10:45:01;;;;;;;0.57;0.30;;;;;;;18.29;85.95;99958.50;5071663;28;20040;-43
2023/06/30 10:47:28;;;;;;;0.35;0.15;;;;;;;18.30;85.66;99962.88;5070724;28;20497;-45
2023/06/30 10:49:55;;;;;;;0.20;0.20;;;;;;;18.32;85.77;99957.63;5072684;28;20049;-44
2023/06/30 10:52:29;;;;;;;0.32;0.10;;;;;;;18.34;85.66;99958.03;5072548;28;20036;-43
2023/06/30 10:55:08;;;;;;;0.15;0.15;;;;;;;18.43;85.88;99952.72;5073104;28;20513;-43
2023/06/30 10:57:39;;;;;;;0.20;0.10;;;;;;;18.52;85.59;99950.25;5072955;28;20045;-42
2023/06/30 11:00:07;;;;;;;0.38;0.10;;;;;;;18.53;85.38;99942.66;5072102;28;20086;-42
2023/06/30 11:02:34;;;;;;;0.25;0.20;;;;;;;18.48;85.81;99938.28;5071692;28;20048;-43
2023/06/30 11:05:28;;;;;;;0.22;0.22;;;;;;;18.41;85.65;99941.13;5071605;28;20044;-45
2023/06/30 11:08:01;;;;;;;0.50;0.20;;;;;;;18.36;85.69;99933.19;5072080;28;20041;-43
2023/06/30 11:10:36;;;;;;;0.60;0.30;;;;;;;18.32;86.09;99938.03;5053772;28;20529;-44
2023/06/30 11:13:08;;;;;;;0.30;0.30;;;;;;;18.30;86.20;99937.66;5071813;28;20049;-48
2023/06/30 11:15:43;;;;;;;1.20;0.43;;;;;;;18.30;86.20;99939.66;5063608;28;20053;-43
2023/06/30 11:18:24;;;;;;;0.52;0.38;;;;;;;18.32;86.35;99940.81;5071250;28;20131;-42
2023/06/30 11:21:04;;;;;;;0.50;0.40;;;;;;;18.27;85.95;99938.47;5071885;28;20135;-42
2023/06/30 11:23:42;;;;;;;0.20;0.20;;;;;;;18.17;86.29;99934.59;5071490;28;20482;-43
2023/06/30 11:26:18;;;;;;;0.50;0.50;;;;;;;18.18;86.66;99938.19;5071404;28;20051;-42
2023/06/30 11:28:48;;;;;;;1.15;0.60;;;;;;;18.23;86.45;99926.53;5071635;28;20048;-45